sensor_id;sensor_type;location;lat;lon;timestamp;pressure;altitude;pressure_sealevel;temperature;humidity
72855;BME280;60991;51.278;22.550;2023-05-27T00:01:16;99770.94;;;15.35;45.64
72855;BME280;60991;51.278;22.550;2023-05-27T00:02:47;99777.81;;;15.25;46.01
72855;BME280;60991;51.278;22.550;2023-05-27T00:04:17;99773.53;;;15.24;45.85
72855;BME280;60991;51.278;22.550;2023-05-27T00:05:47;99776.72;;;15.21;46.10
72855;BME280;60991;51.278;22.550;2023-05-27T00:07:17;99775.41;;;15.19;46.32
72855;BME280;60991;51.278;22.550;2023-05-27T00:08:47;99782.63;;;15.18;46.16
72855;BME280;60991;51.278;22.550;2023-05-27T00:10:18;99778.84;;;15.14;46.08
72855;BME280;60991;51.278;22.550;2023-05-27T00:11:48;99783.88;;;15.11;46.21
72855;BME280;60991;51.278;22.550;2023-05-27T00:13:18;99770.53;;;15.11;46.42
72855;BME280;60991;51.278;22.550;2023-05-27T00:14:48;99783.63;;;15.12;46.28
72855;BME280;60991;51.278;22.550;2023-05-27T00:16:18;99782.81;;;15.12;46.33
72855;BME280;60991;51.278;22.550;2023-05-27T00:17:49;99786.31;;;15.12;46.19
72855;BME280;60991;51.278;22.550;2023-05-27T00:19:19;99781.72;;;15.08;46.42
72855;BME280;60991;51.278;22.550;2023-05-27T00:20:49;99787.59;;;15.05;46.68
72855;BME280;60991;51.278;22.550;2023-05-27T00:22:19;99791.88;;;15.06;46.89
72855;BME280;60991;51.278;22.550;2023-05-27T00:23:51;99795.13;;;15.13;46.99
72855;BME280;60991;51.278;22.550;2023-05-27T00:25:21;99797.00;;;15.12;47.11
72855;BME280;60991;51.278;22.550;2023-05-27T00:26:51;99793.78;;;15.10;47.19
72855;BME280;60991;51.278;22.550;2023-05-27T00:28:21;99799.13;;;15.10;46.87
72855;BME280;60991;51.278;22.550;2023-05-27T00:29:52;99794.63;;;15.16;46.92
72855;BME280;60991;51.278;22.550;2023-05-27T00:31:22;99801.84;;;15.15;47.12
72855;BME280;60991;51.278;22.550;2023-05-27T00:32:52;99799.47;;;15.19;46.83
72855;BME280;60991;51.278;22.550;2023-05-27T00:34:22;99803.22;;;15.23;47.04
72855;BME280;60991;51.278;22.550;2023-05-27T00:35:52;99805.09;;;15.22;46.78
72855;BME280;60991;51.278;22.550;2023-05-27T00:37:23;99805.38;;;15.26;46.89
72855;BME280;60991;51.278;22.550;2023-05-27T00:38:53;99801.13;;;15.30;46.80
72855;BME280;60991;51.278;22.550;2023-05-27T00:40:24;99807.81;;;15.28;46.79
72855;BME280;60991;51.278;22.550;2023-05-27T00:41:56;99801.88;;;15.20;46.96
72855;BME280;60991;51.278;22.550;2023-05-27T00:43:26;99808.31;;;15.24;47.24
72855;BME280;60991;51.278;22.550;2023-05-27T00:44:57;99802.94;;;15.19;46.97
72855;BME280;60991;51.278;22.550;2023-05-27T00:46:27;99803.47;;;15.21;47.02
72855;BME280;60991;51.278;22.550;2023-05-27T00:47:59;99799.47;;;15.19;47.28
72855;BME280;60991;51.278;22.550;2023-05-27T00:49:31;99803.19;;;15.18;47.31
72855;BME280;60991;51.278;22.550;2023-05-27T00:51:02;99798.09;;;15.16;47.39
72855;BME280;60991;51.278;22.550;2023-05-27T00:52:32;99803.47;;;15.16;47.62
72855;BME280;60991;51.278;22.550;2023-05-27T00:54:02;99795.69;;;15.15;47.33
72855;BME280;60991;51.278;22.550;2023-05-27T00:55:32;99803.19;;;15.18;47.38
72855;BME280;60991;51.278;22.550;2023-05-27T00:57:03;99799.72;;;15.17;47.36
72855;BME280;60991;51.278;22.550;2023-05-27T00:58:34;99807.44;;;15.14;47.71
72855;BME280;60991;51.278;22.550;2023-05-27T01:00:05;99805.56;;;15.14;47.60
72855;BME280;60991;51.278;22.550;2023-05-27T01:01:36;99810.06;;;15.09;47.67
72855;BME280;60991;51.278;22.550;2023-05-27T01:03:06;99814.38;;;15.10;47.81
72855;BME280;60991;51.278;22.550;2023-05-27T01:04:37;99809.53;;;15.07;48.03
72855;BME280;60991;51.278;22.550;2023-05-27T01:08:27;99815.09;;;15.00;47.96
72855;BME280;60991;51.278;22.550;2023-05-27T01:10:15;99804.13;;;14.97;47.98
72855;BME280;60991;51.278;22.550;2023-05-27T01:11:59;99805.94;;;14.91;48.24
72855;BME280;60991;51.278;22.550;2023-05-27T01:13:35;99808.28;;;14.82;48.60
72855;BME280;60991;51.278;22.550;2023-05-27T01:15:09;99809.09;;;14.83;48.75
72855;BME280;60991;51.278;22.550;2023-05-27T01:16:43;99811.97;;;14.76;49.18
72855;BME280;60991;51.278;22.550;2023-05-27T01:18:15;99814.13;;;14.79;49.03
72855;BME280;60991;51.278;22.550;2023-05-27T01:19:46;99820.06;;;14.86;49.00
72855;BME280;60991;51.278;22.550;2023-05-27T01:21:18;99809.91;;;14.88;48.84
72855;BME280;60991;51.278;22.550;2023-05-27T01:22:50;99812.56;;;14.83;48.98
72855;BME280;60991;51.278;22.550;2023-05-27T01:24:20;99809.34;;;14.86;48.89
72855;BME280;60991;51.278;22.550;2023-05-27T01:25:51;99816.31;;;14.82;49.16
72855;BME280;60991;51.278;22.550;2023-05-27T01:27:21;99816.81;;;14.79;49.27
72855;BME280;60991;51.278;22.550;2023-05-27T01:28:51;99813.31;;;14.79;49.20
72855;BME280;60991;51.278;22.550;2023-05-27T01:30:22;99818.66;;;14.79;49.28
72855;BME280;60991;51.278;22.550;2023-05-27T01:32:01;99824.50;;;14.76;49.58
72855;BME280;60991;51.278;22.550;2023-05-27T01:33:35;99814.59;;;14.71;49.52
72855;BME280;60991;51.278;22.550;2023-05-27T01:35:12;99814.84;;;14.70;49.46
72855;BME280;60991;51.278;22.550;2023-05-27T01:36:49;99822.53;;;14.66;49.78
72855;BME280;60991;51.278;22.550;2023-05-27T01:38:22;99818.78;;;14.62;49.67
72855;BME280;60991;51.278;22.550;2023-05-27T01:39:55;99812.34;;;14.58;49.90
72855;BME280;60991;51.278;22.550;2023-05-27T01:41:26;99815.19;;;14.51;50.10
72855;BME280;60991;51.278;22.550;2023-05-27T01:42:57;99814.94;;;14.53;50.08
72855;BME280;60991;51.278;22.550;2023-05-27T01:44:30;99809.09;;;14.56;50.17
72855;BME280;60991;51.278;22.550;2023-05-27T01:46:00;99809.97;;;14.62;50.33
72855;BME280;60991;51.278;22.550;2023-05-27T01:47:31;99807.84;;;14.64;50.55
72855;BME280;60991;51.278;22.550;2023-05-27T01:49:03;99813.75;;;14.66;50.14
72855;BME280;60991;51.278;22.550;2023-05-27T01:50:33;99821.75;;;14.66;50.26
72855;BME280;60991;51.278;22.550;2023-05-27T01:52:03;99811.56;;;14.63;50.48
72855;BME280;60991;51.278;22.550;2023-05-27T01:53:34;99816.91;;;14.63;50.22
72855;BME280;60991;51.278;22.550;2023-05-27T01:55:04;99819.84;;;14.61;50.32
72855;BME280;60991;51.278;22.550;2023-05-27T01:56:35;99826.50;;;14.59;50.69
72855;BME280;60991;51.278;22.550;2023-05-27T01:58:05;99815.00;;;14.58;50.53
72855;BME280;60991;51.278;22.550;2023-05-27T01:59:35;99816.56;;;14.54;50.50
72855;BME280;60991;51.278;22.550;2023-05-27T02:01:05;99820.28;;;14.53;50.32
72855;BME280;60991;51.278;22.550;2023-05-27T02:02:35;99825.31;;;14.49;50.80
72855;BME280;60991;51.278;22.550;2023-05-27T02:04:06;99829.81;;;14.44;50.98
72855;BME280;60991;51.278;22.550;2023-05-27T02:05:36;99821.25;;;14.42;51.19
72855;BME280;60991;51.278;22.550;2023-05-27T02:07:06;99827.16;;;14.44;50.90
72855;BME280;60991;51.278;22.550;2023-05-27T02:08:37;99824.72;;;14.42;51.18
72855;BME280;60991;51.278;22.550;2023-05-27T02:10:07;99829.28;;;14.42;50.94
72855;BME280;60991;51.278;22.550;2023-05-27T02:11:38;99826.50;;;14.37;51.40
72855;BME280;60991;51.278;22.550;2023-05-27T02:13:08;99824.31;;;14.29;51.67
72855;BME280;60991;51.278;22.550;2023-05-27T02:14:38;99826.34;;;14.21;51.77
72855;BME280;60991;51.278;22.550;2023-05-27T02:16:08;99815.34;;;14.18;52.21
72855;BME280;60991;51.278;22.550;2023-05-27T02:17:38;99820.94;;;14.16;51.74
72855;BME280;60991;51.278;22.550;2023-05-27T02:19:09;99815.84;;;14.15;52.33
72855;BME280;60991;51.278;22.550;2023-05-27T02:20:39;99818.47;;;14.10;52.60
72855;BME280;60991;51.278;22.550;2023-05-27T02:22:09;99820.28;;;14.04;52.34
72855;BME280;60991;51.278;22.550;2023-05-27T02:23:40;99815.75;;;14.05;52.58
72855;BME280;60991;51.278;22.550;2023-05-27T02:25:10;99822.44;;;14.07;52.44
72855;BME280;60991;51.278;22.550;2023-05-27T02:26:40;99827.22;;;14.05;52.37
72855;BME280;60991;51.278;22.550;2023-05-27T02:28:10;99827.47;;;14.04;52.74
72855;BME280;60991;51.278;22.550;2023-05-27T02:29:41;99829.59;;;14.02;52.34
72855;BME280;60991;51.278;22.550;2023-05-27T02:31:11;99831.75;;;14.05;52.69
72855;BME280;60991;51.278;22.550;2023-05-27T02:32:41;99834.44;;;14.05;52.70
72855;BME280;60991;51.278;22.550;2023-05-27T02:34:11;99832.56;;;14.05;52.92
72855;BME280;60991;51.278;22.550;2023-05-27T02:35:41;99840.34;;;14.07;52.40
72855;BME280;60991;51.278;22.550;2023-05-27T02:37:12;99838.72;;;14.06;52.51
72855;BME280;60991;51.278;22.550;2023-05-27T02:38:42;99837.91;;;14.05;52.50
72855;BME280;60991;51.278;22.550;2023-05-27T02:40:23;99839.78;;;14.05;52.94
72855;BME280;60991;51.278;22.550;2023-05-27T02:41:53;99840.25;;;14.02;52.79
72855;BME280;60991;51.278;22.550;2023-05-27T02:43:24;99838.81;;;13.94;53.03
72855;BME280;60991;51.278;22.550;2023-05-27T02:44:54;99838.53;;;13.91;53.21
72855;BME280;60991;51.278;22.550;2023-05-27T02:46:24;99841.13;;;13.85;52.81
72855;BME280;60991;51.278;22.550;2023-05-27T02:47:54;99850.13;;;13.79;53.39
72855;BME280;60991;51.278;22.550;2023-05-27T02:49:24;99846.63;;;13.79;53.09
72855;BME280;60991;51.278;22.550;2023-05-27T02:50:55;99851.66;;;13.75;53.22
72855;BME280;60991;51.278;22.550;2023-05-27T02:52:25;99846.28;;;13.70;53.65
72855;BME280;60991;51.278;22.550;2023-05-27T02:53:55;99853.63;;;13.63;53.71
72855;BME280;60991;51.278;22.550;2023-05-27T02:55:25;99850.41;;;13.61;53.90
72855;BME280;60991;51.278;22.550;2023-05-27T02:56:55;99851.38;;;13.55;53.94
72855;BME280;60991;51.278;22.550;2023-05-27T02:58:25;99853.50;;;13.53;53.89
72855;BME280;60991;51.278;22.550;2023-05-27T02:59:56;99854.78;;;13.50;53.77
72855;BME280;60991;51.278;22.550;2023-05-27T03:01:26;99859.72;;;13.42;54.23
72855;BME280;60991;51.278;22.550;2023-05-27T03:02:56;99869.81;;;13.40;54.39
72855;BME280;60991;51.278;22.550;2023-05-27T03:04:27;99861.50;;;13.36;54.25
72855;BME280;60991;51.278;22.550;2023-05-27T03:05:57;99858.28;;;13.34;54.67
72855;BME280;60991;51.278;22.550;2023-05-27T03:07:27;99863.88;;;13.33;54.59
72855;BME280;60991;51.278;22.550;2023-05-27T03:08:58;99864.34;;;13.30;54.64
72855;BME280;60991;51.278;22.550;2023-05-27T03:10:28;99861.44;;;13.31;54.66
72855;BME280;60991;51.278;22.550;2023-05-27T03:11:58;99864.59;;;13.28;55.07
72855;BME280;60991;51.278;22.550;2023-05-27T03:13:28;99868.78;;;13.24;54.60
72855;BME280;60991;51.278;22.550;2023-05-27T03:14:59;99860.16;;;13.17;54.84
72855;BME280;60991;51.278;22.550;2023-05-27T03:16:29;99864.31;;;13.13;55.41
72855;BME280;60991;51.278;22.550;2023-05-27T03:17:59;99860.84;;;13.12;55.31
72855;BME280;60991;51.278;22.550;2023-05-27T03:19:29;99866.09;;;13.07;55.58
72855;BME280;60991;51.278;22.550;2023-05-27T03:20:59;99867.59;;;13.03;55.52
72855;BME280;60991;51.278;22.550;2023-05-27T03:22:30;99863.66;;;13.06;55.94
72855;BME280;60991;51.278;22.550;2023-05-27T03:24:00;99854.53;;;13.02;55.81
72855;BME280;60991;51.278;22.550;2023-05-27T03:25:30;99862.47;;;12.97;56.11
72855;BME280;60991;51.278;22.550;2023-05-27T03:27:01;99868.75;;;12.91;56.21
72855;BME280;60991;51.278;22.550;2023-05-27T03:28:31;99875.00;;;12.84;56.35
72855;BME280;60991;51.278;22.550;2023-05-27T03:30:03;99883.81;;;12.85;56.36
72855;BME280;60991;51.278;22.550;2023-05-27T03:31:33;99878.50;;;12.85;56.59
72855;BME280;60991;51.278;22.550;2023-05-27T03:33:03;99873.16;;;12.85;57.11
72855;BME280;60991;51.278;22.550;2023-05-27T03:34:33;99881.97;;;12.86;57.10
72855;BME280;60991;51.278;22.550;2023-05-27T03:36:04;99879.06;;;12.87;57.13
72855;BME280;60991;51.278;22.550;2023-05-27T03:37:35;99883.34;;;12.88;56.71
72855;BME280;60991;51.278;22.550;2023-05-27T03:39:05;99885.53;;;12.91;56.68
72855;BME280;60991;51.278;22.550;2023-05-27T03:40:36;99883.91;;;12.90;56.92
72855;BME280;60991;51.278;22.550;2023-05-27T03:42:06;99874.22;;;12.84;56.93
72855;BME280;60991;51.278;22.550;2023-05-27T03:43:36;99881.97;;;12.86;57.13
72855;BME280;60991;51.278;22.550;2023-05-27T03:45:07;99882.44;;;12.82;57.54
72855;BME280;60991;51.278;22.550;2023-05-27T03:46:37;99884.06;;;12.83;57.17
72855;BME280;60991;51.278;22.550;2023-05-27T03:48:07;99888.81;;;12.81;57.58
72855;BME280;60991;51.278;22.550;2023-05-27T03:49:38;99885.09;;;12.82;57.31
72855;BME280;60991;51.278;22.550;2023-05-27T03:51:08;99888.91;;;12.87;57.85
72855;BME280;60991;51.278;22.550;2023-05-27T03:52:38;99894.34;;;12.92;57.04
72855;BME280;60991;51.278;22.550;2023-05-27T03:54:08;99898.06;;;12.91;57.67
72855;BME280;60991;51.278;22.550;2023-05-27T03:55:38;99898.53;;;12.88;57.75
72855;BME280;60991;51.278;22.550;2023-05-27T03:57:09;99900.03;;;12.83;57.80
72855;BME280;60991;51.278;22.550;2023-05-27T03:58:39;99894.41;;;12.80;57.89
72855;BME280;60991;51.278;22.550;2023-05-27T04:00:10;99905.19;;;12.73;57.72
72855;BME280;60991;51.278;22.550;2023-05-27T04:01:40;99906.72;;;12.69;58.36
72855;BME280;60991;51.278;22.550;2023-05-27T04:03:10;99906.63;;;12.64;58.37
72855;BME280;60991;51.278;22.550;2023-05-27T04:04:40;99901.88;;;12.66;57.90
72855;BME280;60991;51.278;22.550;2023-05-27T04:06:10;99905.09;;;12.40;58.56
72855;BME280;60991;51.278;22.550;2023-05-27T04:07:41;99908.00;;;12.38;59.19
72855;BME280;60991;51.278;22.550;2023-05-27T04:09:11;99904.63;;;12.43;58.48
72855;BME280;60991;51.278;22.550;2023-05-27T04:10:41;99904.06;;;12.41;59.13
72855;BME280;60991;51.278;22.550;2023-05-27T04:12:11;99909.16;;;12.42;59.22
72855;BME280;60991;51.278;22.550;2023-05-27T04:13:42;99916.97;;;12.49;59.19
72855;BME280;60991;51.278;22.550;2023-05-27T04:15:12;99910.09;;;12.36;59.17
72855;BME280;60991;51.278;22.550;2023-05-27T04:16:42;99917.72;;;12.33;59.28
72855;BME280;60991;51.278;22.550;2023-05-27T04:18:12;99912.75;;;12.36;59.04
72855;BME280;60991;51.278;22.550;2023-05-27T04:19:43;99906.50;;;12.42;59.40
72855;BME280;60991;51.278;22.550;2023-05-27T04:21:13;99910.66;;;12.38;59.40
72855;BME280;60991;51.278;22.550;2023-05-27T04:22:43;99912.47;;;12.49;59.56
72855;BME280;60991;51.278;22.550;2023-05-27T04:24:14;99915.00;;;12.56;59.50
72855;BME280;60991;51.278;22.550;2023-05-27T04:25:44;99915.34;;;12.60;58.83
72855;BME280;60991;51.278;22.550;2023-05-27T04:27:14;99913.28;;;12.50;59.23
72855;BME280;60991;51.278;22.550;2023-05-27T04:28:44;99918.13;;;12.53;58.80
72855;BME280;60991;51.278;22.550;2023-05-27T04:30:14;99922.53;;;12.59;59.44
72855;BME280;60991;51.278;22.550;2023-05-27T04:31:45;99913.72;;;12.59;59.08
72855;BME280;60991;51.278;22.550;2023-05-27T04:33:15;99919.34;;;12.62;59.34
72855;BME280;60991;51.278;22.550;2023-05-27T04:34:46;99920.50;;;12.66;59.46
72855;BME280;60991;51.278;22.550;2023-05-27T04:36:16;99915.53;;;12.70;58.82
72855;BME280;60991;51.278;22.550;2023-05-27T04:37:46;99914.59;;;12.64;59.48
72855;BME280;60991;51.278;22.550;2023-05-27T04:39:16;99912.19;;;12.63;59.14
72855;BME280;60991;51.278;22.550;2023-05-27T04:40:50;99911.38;;;12.62;59.66
72855;BME280;60991;51.278;22.550;2023-05-27T04:42:20;99921.78;;;12.64;59.18
72855;BME280;60991;51.278;22.550;2023-05-27T04:43:50;99919.22;;;12.69;59.58
72855;BME280;60991;51.278;22.550;2023-05-27T04:45:20;99923.28;;;12.71;59.61
72855;BME280;60991;51.278;22.550;2023-05-27T04:46:51;99922.00;;;12.74;59.58
72855;BME280;60991;51.278;22.550;2023-05-27T04:48:21;99918.53;;;12.73;59.60
72855;BME280;60991;51.278;22.550;2023-05-27T04:49:51;99915.97;;;12.78;59.56
72855;BME280;60991;51.278;22.550;2023-05-27T04:51:21;99925.31;;;12.81;59.19
72855;BME280;60991;51.278;22.550;2023-05-27T04:52:52;99921.94;;;12.86;59.49
72855;BME280;60991;51.278;22.550;2023-05-27T04:54:23;99923.66;;;12.92;59.60
72855;BME280;60991;51.278;22.550;2023-05-27T04:55:53;99921.16;;;13.02;59.24
72855;BME280;60991;51.278;22.550;2023-05-27T04:57:23;99924.38;;;13.04;59.08
72855;BME280;60991;51.278;22.550;2023-05-27T04:58:53;99918.09;;;13.10;58.99
72855;BME280;60991;51.278;22.550;2023-05-27T05:00:24;99911.00;;;12.99;59.33
72855;BME280;60991;51.278;22.550;2023-05-27T05:01:54;99912.59;;;13.00;59.14
72855;BME280;60991;51.278;22.550;2023-05-27T05:03:24;99917.69;;;13.01;59.18
72855;BME280;60991;51.278;22.550;2023-05-27T05:04:55;99911.88;;;13.04;59.07
72855;BME280;60991;51.278;22.550;2023-05-27T05:06:25;99915.09;;;13.06;59.29
72855;BME280;60991;51.278;22.550;2023-05-27T05:07:55;99905.34;;;13.12;58.84
72855;BME280;60991;51.278;22.550;2023-05-27T05:09:25;99912.78;;;13.10;59.39
72855;BME280;60991;51.278;22.550;2023-05-27T05:10:56;99911.59;;;13.17;59.06
72855;BME280;60991;51.278;22.550;2023-05-27T05:12:26;99907.22;;;13.11;59.05
72855;BME280;60991;51.278;22.550;2023-05-27T05:13:56;99909.06;;;13.11;59.25
72855;BME280;60991;51.278;22.550;2023-05-27T05:15:26;99908.97;;;13.06;59.22
72855;BME280;60991;51.278;22.550;2023-05-27T05:16:56;99915.78;;;13.13;58.77
72855;BME280;60991;51.278;22.550;2023-05-27T05:18:27;99914.81;;;13.20;59.21
72855;BME280;60991;51.278;22.550;2023-05-27T05:19:57;99911.44;;;13.24;58.72
72855;BME280;60991;51.278;22.550;2023-05-27T05:21:27;99911.69;;;13.23;58.77
72855;BME280;60991;51.278;22.550;2023-05-27T05:22:58;99918.06;;;13.22;58.56
72855;BME280;60991;51.278;22.550;2023-05-27T05:24:28;99910.97;;;13.27;58.69
72855;BME280;60991;51.278;22.550;2023-05-27T05:25:58;99915.41;;;13.38;58.49
72855;BME280;60991;51.278;22.550;2023-05-27T05:27:29;99916.53;;;13.42;58.51
72855;BME280;60991;51.278;22.550;2023-05-27T05:28:59;99905.88;;;13.42;58.71
72855;BME280;60991;51.278;22.550;2023-05-27T05:30:29;99911.44;;;13.41;58.75
72855;BME280;60991;51.278;22.550;2023-05-27T05:31:59;99913.88;;;13.42;58.58
72855;BME280;60991;51.278;22.550;2023-05-27T05:33:29;99910.16;;;13.43;58.55
72855;BME280;60991;51.278;22.550;2023-05-27T05:35:00;99907.91;;;13.52;57.88
72855;BME280;60991;51.278;22.550;2023-05-27T05:36:30;99912.47;;;13.57;58.50
72855;BME280;60991;51.278;22.550;2023-05-27T05:38:00;99912.56;;;13.62;57.91
72855;BME280;60991;51.278;22.550;2023-05-27T05:39:30;99909.16;;;13.66;57.69
72855;BME280;60991;51.278;22.550;2023-05-27T05:41:01;99916.44;;;13.71;57.99
72855;BME280;60991;51.278;22.550;2023-05-27T05:42:31;99908.69;;;13.69;57.73
72855;BME280;60991;51.278;22.550;2023-05-27T05:44:01;99919.69;;;13.73;57.88
72855;BME280;60991;51.278;22.550;2023-05-27T05:45:31;99932.84;;;13.79;58.00
72855;BME280;60991;51.278;22.550;2023-05-27T05:47:01;99925.97;;;13.83;57.89
72855;BME280;60991;51.278;22.550;2023-05-27T05:48:32;99925.53;;;13.92;57.70
72855;BME280;60991;51.278;22.550;2023-05-27T05:50:02;99938.63;;;13.93;57.62
72855;BME280;60991;51.278;22.550;2023-05-27T05:51:32;99930.13;;;13.96;57.33
72855;BME280;60991;51.278;22.550;2023-05-27T05:53:02;99931.50;;;13.99;57.66
72855;BME280;60991;51.278;22.550;2023-05-27T05:54:33;99930.78;;;14.03;57.32
72855;BME280;60991;51.278;22.550;2023-05-27T05:56:03;99932.63;;;14.03;57.87
72855;BME280;60991;51.278;22.550;2023-05-27T05:57:33;99936.44;;;14.07;57.81
72855;BME280;60991;51.278;22.550;2023-05-27T05:59:03;99929.53;;;14.11;57.55
72855;BME280;60991;51.278;22.550;2023-05-27T06:00:35;99935.44;;;14.13;57.17
72855;BME280;60991;51.278;22.550;2023-05-27T06:02:05;99932.28;;;14.16;57.24
72855;BME280;60991;51.278;22.550;2023-05-27T06:03:36;99937.38;;;14.17;57.25
72855;BME280;60991;51.278;22.550;2023-05-27T06:05:07;99928.88;;;14.20;57.15
72855;BME280;60991;51.278;22.550;2023-05-27T06:06:37;99927.56;;;14.23;56.98
72855;BME280;60991;51.278;22.550;2023-05-27T06:08:07;99923.53;;;14.20;57.34
72855;BME280;60991;51.278;22.550;2023-05-27T06:09:37;99929.44;;;14.23;57.03
72855;BME280;60991;51.278;22.550;2023-05-27T06:11:08;99932.41;;;14.26;57.14
72855;BME280;60991;51.278;22.550;2023-05-27T06:12:38;99941.53;;;14.30;57.25
72855;BME280;60991;51.278;22.550;2023-05-27T06:14:08;99943.34;;;14.25;57.26
72855;BME280;60991;51.278;22.550;2023-05-27T06:15:38;99950.59;;;14.29;57.08
72855;BME280;60991;51.278;22.550;2023-05-27T06:17:09;99942.41;;;14.36;56.80
72855;BME280;60991;51.278;22.550;2023-05-27T06:18:39;99940.31;;;14.38;56.85
72855;BME280;60991;51.278;22.550;2023-05-27T06:20:09;99946.19;;;14.40;56.92
72855;BME280;60991;51.278;22.550;2023-05-27T06:21:40;99944.28;;;14.35;57.03
72855;BME280;60991;51.278;22.550;2023-05-27T06:23:10;99949.47;;;14.42;57.15
72855;BME280;60991;51.278;22.550;2023-05-27T06:24:40;99955.16;;;14.50;56.79
72855;BME280;60991;51.278;22.550;2023-05-27T06:26:10;99949.00;;;14.50;57.16
72855;BME280;60991;51.278;22.550;2023-05-27T06:27:41;99953.31;;;14.51;56.91
72855;BME280;60991;51.278;22.550;2023-05-27T06:29:11;99955.78;;;14.58;56.73
72855;BME280;60991;51.278;22.550;2023-05-27T06:30:41;99956.34;;;14.60;56.63
72855;BME280;60991;51.278;22.550;2023-05-27T06:32:11;99952.13;;;14.42;56.56
72855;BME280;60991;51.278;22.550;2023-05-27T06:33:42;99967.72;;;14.50;56.81
72855;BME280;60991;51.278;22.550;2023-05-27T06:35:12;99961.13;;;14.58;56.62
72855;BME280;60991;51.278;22.550;2023-05-27T06:36:42;99951.88;;;14.65;56.58
72855;BME280;60991;51.278;22.550;2023-05-27T06:38:12;99962.38;;;14.72;56.58
72855;BME280;60991;51.278;22.550;2023-05-27T06:39:42;99956.03;;;14.78;56.31
72855;BME280;60991;51.278;22.550;2023-05-27T06:41:13;99953.53;;;14.71;56.37
72855;BME280;60991;51.278;22.550;2023-05-27T06:42:43;99956.34;;;14.81;55.98
72855;BME280;60991;51.278;22.550;2023-05-27T06:44:13;99957.41;;;14.80;56.21
72855;BME280;60991;51.278;22.550;2023-05-27T06:45:43;99954.72;;;14.80;55.88
72855;BME280;60991;51.278;22.550;2023-05-27T06:47:14;99958.31;;;14.69;56.71
72855;BME280;60991;51.278;22.550;2023-05-27T06:48:44;99960.75;;;14.71;56.18
72855;BME280;60991;51.278;22.550;2023-05-27T06:50:14;99963.38;;;14.66;56.23
72855;BME280;60991;51.278;22.550;2023-05-27T06:51:44;99961.25;;;14.68;55.96
72855;BME280;60991;51.278;22.550;2023-05-27T06:53:15;99952.69;;;14.66;56.26
72855;BME280;60991;51.278;22.550;2023-05-27T06:54:46;99949.81;;;14.72;56.33
72855;BME280;60991;51.278;22.550;2023-05-27T06:56:16;99954.84;;;14.69;56.21
72855;BME280;60991;51.278;22.550;2023-05-27T06:57:47;99953.44;;;14.61;56.18
72855;BME280;60991;51.278;22.550;2023-05-27T06:59:17;99958.81;;;14.66;56.59
72855;BME280;60991;51.278;22.550;2023-05-27T07:00:47;99952.97;;;14.69;56.57
72855;BME280;60991;51.278;22.550;2023-05-27T07:02:17;99961.13;;;14.79;56.68
72855;BME280;60991;51.278;22.550;2023-05-27T07:03:48;99962.38;;;14.72;55.97
72855;BME280;60991;51.278;22.550;2023-05-27T07:05:18;99949.88;;;14.77;55.82
72855;BME280;60991;51.278;22.550;2023-05-27T07:06:48;99958.88;;;14.71;56.28
72855;BME280;60991;51.278;22.550;2023-05-27T07:08:18;99955.56;;;14.59;56.51
72855;BME280;60991;51.278;22.550;2023-05-27T07:09:48;99960.50;;;14.72;56.41
72855;BME280;60991;51.278;22.550;2023-05-27T07:11:19;99968.59;;;14.77;56.63
72855;BME280;60991;51.278;22.550;2023-05-27T07:12:49;99970.44;;;14.77;56.92
72855;BME280;60991;51.278;22.550;2023-05-27T07:14:19;99961.16;;;14.84;56.58
72855;BME280;60991;51.278;22.550;2023-05-27T07:15:49;99965.03;;;14.94;57.06
72855;BME280;60991;51.278;22.550;2023-05-27T07:17:19;99967.03;;;14.81;56.67
72855;BME280;60991;51.278;22.550;2023-05-27T07:18:50;99964.16;;;14.88;56.38
72855;BME280;60991;51.278;22.550;2023-05-27T07:20:20;99958.13;;;14.98;56.13
72855;BME280;60991;51.278;22.550;2023-05-27T07:21:50;99962.97;;;15.01;56.93
72855;BME280;60991;51.278;22.550;2023-05-27T07:23:20;99968.91;;;15.08;56.83
72855;BME280;60991;51.278;22.550;2023-05-27T07:24:51;99955.84;;;15.11;56.55
72855;BME280;60991;51.278;22.550;2023-05-27T07:26:21;99953.22;;;15.16;56.89
72855;BME280;60991;51.278;22.550;2023-05-27T07:27:51;99949.25;;;15.24;56.83
72855;BME280;60991;51.278;22.550;2023-05-27T07:29:21;99958.06;;;15.19;57.04
72855;BME280;60991;51.278;22.550;2023-05-27T07:30:51;99951.91;;;15.19;56.21
72855;BME280;60991;51.278;22.550;2023-05-27T07:32:22;99952.72;;;15.19;55.92
72855;BME280;60991;51.278;22.550;2023-05-27T07:33:53;99949.59;;;15.01;56.17
72855;BME280;60991;51.278;22.550;2023-05-27T07:35:23;99952.41;;;14.89;57.13
72855;BME280;60991;51.278;22.550;2023-05-27T07:36:53;99950.75;;;14.83;57.37
72855;BME280;60991;51.278;22.550;2023-05-27T07:38:23;99950.84;;;14.93;57.40
72855;BME280;60991;51.278;22.550;2023-05-27T07:39:54;99959.25;;;15.07;57.08
72855;BME280;60991;51.278;22.550;2023-05-27T07:41:24;99947.38;;;15.19;56.88
72855;BME280;60991;51.278;22.550;2023-05-27T07:42:54;99947.75;;;15.33;56.96
72855;BME280;60991;51.278;22.550;2023-05-27T07:44:24;99953.16;;;15.38;57.21
72855;BME280;60991;51.278;22.550;2023-05-27T07:45:55;99950.06;;;15.24;56.66
72855;BME280;60991;51.278;22.550;2023-05-27T07:47:25;99949.38;;;15.34;56.84
72855;BME280;60991;51.278;22.550;2023-05-27T07:48:55;99954.47;;;15.36;56.50
72855;BME280;60991;51.278;22.550;2023-05-27T07:50:25;99958.75;;;15.37;56.70
72855;BME280;60991;51.278;22.550;2023-05-27T07:51:55;99953.41;;;15.42;56.96
72855;BME280;60991;51.278;22.550;2023-05-27T07:53:26;99950.78;;;15.47;57.45
72855;BME280;60991;51.278;22.550;2023-05-27T07:54:56;99961.00;;;15.50;57.34
72855;BME280;60991;51.278;22.550;2023-05-27T07:56:26;99948.41;;;15.50;56.84